Flight Track Log - Related Links

Times and Time Zones

All times are in EDT time to prevent confusion due to time zone crossing. See the SWA10 flight status page for this flight to view local times or setup timezone preferences in your user account.

Time Position Orientation Groundspeed Altitude Reporting Facility
EDT Latitude Longitude Course Direction KTS MPH feet Rate Location/Type
Tue 11:15:54 AM 32.9000 -96.9000 323° Northwest 231 266 4,400  Level Dallas / Fort Worth TRACON
Tue 11:16:55 AM 32.9667 -96.9167 348° North 305 351 6,000 1,686 Climbing Dallas / Fort Worth TRACON
Tue 11:17:55 AM 33.0167 -96.8500 48° Northeast 325 374 7,800 2,042 Climbing Dallas / Fort Worth TRACON
Tue 11:20:06 AM 32.8672 -96.7803 159° South 292 336 12,500 2,293 Climbing Fort Worth Center
Tue 11:21:06 AM 32.7944 -96.8178 203° Southwest 297 342 15,100 3,050 Climbing Fort Worth Center
Tue 11:22:06 AM 32.6986 -96.8653 203° Southwest 322 371 18,600 3,050 Climbing Fort Worth Center
Tue 11:23:06 AM 32.6089 -96.9053 201° Southwest 344 396 21,200 2,200 Climbing Fort Worth Center
Tue 11:24:06 AM 32.5236 -96.9453 202° Southwest 356 410 23,000 2,050 Climbing Fort Worth Center
Tue 11:25:06 AM 32.4194 -96.9975 203° Southwest 366 421 25,300 2,050 Climbing Fort Worth Center
Tue 11:26:06 AM 32.3214 -97.0422 201° Southwest 378 435 27,100 1,350 Climbing Fort Worth Center
Tue 11:27:06 AM 32.2108 -97.0647 190° South 395 455 28,000 450 Climbing Fort Worth Center
Tue 11:28:06 AM 32.1064 -97.0650 180° South 409 471 28,000  Level Fort Worth Center
Tue 11:29:06 AM 31.9894 -97.0728 183° South 419 482 28,000  Level Fort Worth Center
Tue 11:30:06 AM 31.8642 -97.0733 180° South 419 482 28,000  Level Fort Worth Center
Tue 11:31:56 AM 31.6467 -97.0808 182° South 426 490 28,000  Level Houston Center
Tue 11:32:58 AM 31.5258 -97.0856 182° South 428 493 28,000  Level Houston Center
Tue 11:34:00 AM 31.4142 -97.1272 198° South 417 480 28,000  Level Houston Center
Tue 11:35:02 AM 31.3039 -97.1722 199° South 416 479 28,000  Level Houston Center
Tue 11:36:04 AM 31.1939 -97.2161 199° South 414 476 28,000  Level Houston Center
Tue 11:37:07 AM 31.0822 -97.2592 198° South 417 480 28,000  Level Houston Center
Tue 11:38:09 AM 30.9653 -97.3042 198° South 420 483 28,000  Level Houston Center
Tue 11:39:11 AM 30.8422 -97.3522 199° South 431 496 28,000 -435 Level Houston Center
Tue 11:40:13 AM 30.7322 -97.3939 198° South 418 481 27,100 -919 Descending Houston Center
Tue 11:41:15 AM 30.6231 -97.4361 198° South 410 472 26,100 -968 Descending Houston Center
Tue 11:42:17 AM 30.5150 -97.4786 199° South 406 467 25,100 -1,016 Descending Houston Center
Tue 11:43:19 AM 30.3917 -97.5264 198° South 397 457 24,000 -1,056 Descending Houston Center
Tue 11:44:22 AM 30.2994 -97.5858 209° Southwest 372 428 22,900 -1,008 Descending Houston Center
Tue 11:45:24 AM 30.2117 -97.6461 211° Southwest 365 420 21,900 -1,442 Descending Houston Center
Tue 11:46:06 AM 30.1508 -97.6869 210° Southwest 368 423 20,400 -2,226 Descending Houston Center
Tue 11:46:26 AM 30.1244 -97.7058 212° Southwest 362 417 19,600 -2,561 Descending Houston Center
Tue 11:47:28 AM 30.0314 -97.7697 211° Southwest 350 403 16,900 -2,619 Descending Houston Center
Tue 11:48:32 AM 29.9400 -97.8322 211° Southwest 350 403 14,100 -1,887 Descending Houston Center
Tue 11:49:32 AM 29.8800 -97.9053 227° Southwest 318 366 13,000 -1,131 Descending Houston Center
Tue 11:50:34 AM 29.8422 -97.9917 243° Southwest 299 344 11,800 -1,623 Descending Houston Center
Tue 11:51:34 AM 29.8075 -98.0731 244° Southwest 278 320 9,700 -1,835 Descending Houston Center
Tue 11:52:35 AM 29.7733 -98.1544 244° Southwest 285 328 8,100 -1,082 Descending Houston Center
Tue 11:53:36 AM 29.7425 -98.2306 245° Southwest 227 261 7,500 -885 Descending Houston Center
Tue 11:54:37 AM 29.7150 -98.2964 244° Southwest 221 254 6,300 -703 Descending Houston Center
Tue 11:55:44 AM 29.6856 -98.3625 243° Southwest 219 252 6,000 -600 Descending Houston Center
Tue 11:56:47 AM 29.6558 -98.4314 244° Southwest 226 260 5,000 -496 Descending Houston Center
Tue 11:57:45 AM 29.6747 -98.4961 289° West 237 273 5,000  Level Houston Center
Tue 11:58:51 AM 29.7122 -98.5564 306° West 218 251 5,000 -492 Level Houston Center
Tue 11:59:47 AM 29.7414 -98.6061 304° West 196 226 4,000 -513 Descending Houston Center
Tue 12:00:48 PM 29.7692 -98.6581 302° West 199 229 4,000 -52 Level Houston Center
Tue 12:01:42 PM 29.7339 -98.6864 215° Southwest 166 191 3,900 -343 Descending Houston Center
Tue 12:01:58 PM 29.7222 -98.6775 147° Southeast 171 197 3,600 -716 Descending Houston Center
Tue 12:02:49 PM 29.6839 -98.6658 165° South 171 197 3,100 -283 Descending Houston Center
Tue 12:03:44 PM 29.6511 -98.6286 135° Southeast 180 207 3,100  Level Houston Center
Tue 12:04:02 PM 29.6422 -98.6142 125° Southeast 175 201 3,100 -90 Level Houston Center
Tue 12:04:51 PM 29.6175 -98.5822 132° Southeast 173 199 3,000 -462 Descending Houston Center
Tue 12:05:46 PM 29.5914 -98.5494 132° Southeast 153 176 2,300 -800 Descending Houston Center
Tue 12:06:06 PM 29.5819 -98.5350 127° Southeast 152 175 2,000 -700 Descending Houston Center
Tue 12:06:46 PM 29.5675 -98.5186 135° Southeast 127 146 1,600 -677 Descending Houston Center
Tue 12:07:08 PM 29.5597 -98.5053 124° Southeast 130 150 1,300 -571 Descending Houston Center
Tue 12:08:10 PM 29.5419 -98.4825 132° Southeast 120 138 800 -484 Descending Houston Center

Login

Don't have an account? Register now (free) for customized features, flight alerts, and more!